Time;durP1;ratioP1;P1;durP2;ratioP2;P2;SDS_P1;SDS_P2;PMS_P1;PMS_P2;Temp;Humidity;BMP_temperature;BMP_pressure;BME280_temperature;BME280_humidity;BME280_pressure;Samples;Min_cycle;Max_cycle;Signal;HPM_P1;HPM_P2
2022/05/22 00:01:59;;;;;;;4.90;3.60;;;14.20;99.90;;;;;;5015823;28;20436;-61
2022/05/22 00:04:24;;;;;;;4.07;3.67;;;14.30;99.90;;;;;;5015456;28;20457;-61
2022/05/22 00:06:50;;;;;;;3.87;3.53;;;14.30;99.90;;;;;;5015443;28;20199;-61
2022/05/22 00:09:16;;;;;;;3.63;3.30;;;14.20;99.90;;;;;;5015221;28;20168;-61
2022/05/22 00:11:42;;;;;;;4.77;2.67;;;14.20;99.90;;;;;;5015333;28;20202;-61
2022/05/22 00:14:11;;;;;;;3.73;3.30;;;14.20;99.90;;;;;;5015332;28;20187;-61
2022/05/22 00:16:40;;;;;;;3.70;3.23;;;14.10;99.90;;;;;;5015503;28;20863;-61
2022/05/22 00:19:13;;;;;;;3.10;2.90;;;14.10;99.90;;;;;;5015021;28;20445;-61
2022/05/22 00:21:40;;;;;;;2.87;2.60;;;13.90;99.90;;;;;;5015262;28;20794;-61
2022/05/22 00:24:07;;;;;;;3.53;3.10;;;13.90;99.90;;;;;;5015012;28;20449;-61
2022/05/22 00:26:33;;;;;;;4.30;3.30;;;13.90;99.90;;;;;;5015292;28;20465;-61
2022/05/22 00:28:59;;;;;;;2.90;2.70;;;13.90;99.90;;;;;;5014778;28;20417;-61
2022/05/22 00:31:24;;;;;;;3.10;2.90;;;13.90;99.90;;;;;;5015015;28;20475;-61
2022/05/22 00:33:50;;;;;;;3.47;2.77;;;13.80;99.90;;;;;;5015085;28;20198;-61
2022/05/22 00:36:16;;;;;;;3.67;3.17;;;13.70;99.90;;;;;;5014950;28;20175;-61
2022/05/22 00:38:41;;;;;;;4.17;3.80;;;13.70;99.90;;;;;;5014454;28;20171;-61
2022/05/22 00:41:08;;;;;;;6.20;2.97;;;13.70;99.90;;;;;;5014880;28;20482;-61
2022/05/22 00:43:51;;;;;;;3.47;2.63;;;13.80;99.90;;;;;;5014767;28;20695;-61
2022/05/22 00:46:20;;;;;;;3.70;3.00;;;13.90;99.90;;;;;;5014871;28;20464;-61
2022/05/22 00:48:53;;;;;;;3.87;3.43;;;13.90;99.90;;;;;;5014471;28;20454;-61
2022/05/22 00:51:20;;;;;;;4.40;3.27;;;13.90;99.90;;;;;;5014656;28;20483;-61
2022/05/22 00:53:50;;;;;;;3.70;3.40;;;13.70;99.90;;;;;;5014682;28;20434;-61
2022/05/22 00:56:20;;;;;;;3.03;2.77;;;13.70;99.90;;;;;;5014259;28;20432;-61
2022/05/22 00:58:49;;;;;;;3.37;3.07;;;13.50;99.90;;;;;;5014248;28;20473;-61
2022/05/22 01:01:15;;;;;;;5.27;2.93;;;13.50;99.90;;;;;;5014498;28;20426;-61
2022/05/22 01:03:41;;;;;;;3.33;3.13;;;13.40;99.90;;;;;;5014090;28;20476;-61
2022/05/22 01:06:12;;;;;;;4.10;3.70;;;13.40;99.90;;;;;;5014322;28;20198;-61
2022/05/22 01:08:39;;;;;;;3.17;2.97;;;13.40;99.90;;;;;;5014313;28;20782;-61
2022/05/22 01:11:12;;;;;;;3.50;3.20;;;13.40;99.90;;;;;;5014349;28;20757;-61
2022/05/22 01:13:41;;;;;;;3.53;3.23;;;13.40;99.90;;;;;;5014265;28;20863;-61
2022/05/22 01:16:07;;;;;;;3.17;2.90;;;13.40;99.90;;;;;;5014066;28;20425;-61
2022/05/22 01:18:52;;;;;;;3.03;2.83;;;13.40;99.90;;;;;;5013921;28;20780;-61
2022/05/22 01:21:27;;;;;;;2.97;2.77;;;13.40;99.90;;;;;;5014083;28;20449;-61
2022/05/22 01:23:53;;;;;;;3.67;3.23;;;13.20;99.90;;;;;;5013922;28;20491;-61
2022/05/22 01:26:20;;;;;;;3.57;3.30;;;13.20;99.90;;;;;;5014087;28;20821;-61
2022/05/22 01:28:46;;;;;;;4.03;3.00;;;13.20;99.90;;;;;;5013592;28;20456;-61
2022/05/22 01:31:12;;;;;;;3.60;3.30;;;13.30;99.90;;;;;;5014107;28;20541;-61
2022/05/22 01:33:38;;;;;;;3.50;3.20;;;13.40;99.90;;;;;;5013819;28;20194;-61
2022/05/22 01:36:05;;;;;;;4.43;3.23;;;13.50;99.90;;;;;;5013867;28;20582;-61
2022/05/22 01:38:32;;;;;;;4.40;3.20;;;13.50;99.90;;;;;;5013431;28;20445;-61
2022/05/22 01:40:58;;;;;;;4.00;3.10;;;13.50;99.90;;;;;;5013711;28;20422;-61
2022/05/22 01:43:23;;;;;;;4.77;3.60;;;13.40;99.90;;;;;;5013477;28;20540;-61
2022/05/22 01:45:49;;;;;;;4.50;3.40;;;13.30;99.90;;;;;;5013816;28;21224;-61
2022/05/22 01:48:15;;;;;;;4.23;3.20;;;13.30;99.90;;;;;;5013423;28;20206;-61
2022/05/22 01:50:43;;;;;;;7.27;3.50;;;13.40;99.90;;;;;;5013606;28;20167;-61
2022/05/22 01:53:08;;;;;;;3.93;3.63;;;13.30;99.90;;;;;;5013433;28;20532;-61
2022/05/22 01:55:34;;;;;;;3.33;3.13;;;13.30;99.90;;;;;;5013526;28;20497;-61
2022/05/22 01:58:00;;;;;;;4.50;4.10;;;13.20;99.90;;;;;;5013382;28;20657;-61
2022/05/22 02:00:26;;;;;;;5.30;4.33;;;13.20;99.90;;;;;;5013116;28;20812;-61
2022/05/22 02:02:56;;;;;;;6.23;3.97;;;13.30;99.90;;;;;;5013287;28;20233;-61
2022/05/22 02:05:22;;;;;;;4.40;4.03;;;13.30;99.90;;;;;;5013254;28;20258;-61
2022/05/22 02:10:33;;;;;;;6.20;4.53;;;13.40;99.90;;;;;;5012998;28;20417;-61
2022/05/22 02:12:59;;;;;;;4.33;4.03;;;13.30;99.90;;;;;;5013092;28;20808;-61
2022/05/22 02:15:25;;;;;;;4.13;3.83;;;13.20;99.90;;;;;;5013088;28;20468;-61
2022/05/22 02:17:51;;;;;;;4.60;3.70;;;13.20;99.90;;;;;;5013070;28;20229;-61
2022/05/22 02:20:17;;;;;;;4.23;3.90;;;13.20;99.90;;;;;;5012858;28;20175;-61
2022/05/22 02:22:46;;;;;;;5.60;5.10;;;13.20;99.90;;;;;;5012846;28;20875;-61
2022/05/22 02:25:13;;;;;;;4.47;3.50;;;13.20;99.90;;;;;;5012835;28;20919;-61
2022/05/22 02:27:39;;;;;;;4.30;3.67;;;13.20;99.90;;;;;;5012820;28;20833;-61
2022/05/22 02:30:06;;;;;;;4.50;4.03;;;13.30;99.90;;;;;;5012496;28;20418;-61
2022/05/22 02:32:31;;;;;;;4.67;4.37;;;13.10;99.90;;;;;;5012732;28;20217;-61
2022/05/22 02:34:57;;;;;;;4.10;3.80;;;13.10;99.90;;;;;;5012745;28;20903;-61
2022/05/22 02:37:22;;;;;;;4.47;4.07;;;13.10;99.90;;;;;;5012569;28;20182;-61
2022/05/22 02:39:48;;;;;;;4.20;3.80;;;13.10;99.90;;;;;;5012583;28;20175;-61
2022/05/22 02:42:14;;;;;;;7.33;4.00;;;13.10;99.90;;;;;;5012801;28;20258;-61
2022/05/22 02:44:39;;;;;;;4.53;4.13;;;13.10;99.90;;;;;;5012632;28;20213;-61
2022/05/22 02:47:05;;;;;;;4.10;3.70;;;13.20;99.90;;;;;;5012540;28;20203;-61
2022/05/22 02:49:33;;;;;;;4.00;3.70;;;13.10;99.90;;;;;;5012237;28;20247;-61
2022/05/22 02:52:00;;;;;;;5.80;4.10;;;13.10;99.90;;;;;;5012310;28;20437;-61
2022/05/22 02:54:25;;;;;;;4.20;3.90;;;13.00;99.90;;;;;;5012343;28;20521;-61
2022/05/22 02:56:51;;;;;;;4.73;4.23;;;12.90;99.90;;;;;;5012642;28;20844;-61
2022/05/22 02:59:17;;;;;;;5.57;4.30;;;12.80;99.90;;;;;;5012257;28;20178;-61
2022/05/22 03:01:42;;;;;;;4.30;3.90;;;12.80;99.90;;;;;;5012377;28;20183;-61
2022/05/22 03:04:08;;;;;;;7.33;4.90;;;12.70;99.90;;;;;;5012058;28;20252;-61
2022/05/22 03:06:39;;;;;;;4.23;3.87;;;12.70;99.90;;;;;;5011991;28;20211;-61
2022/05/22 03:09:15;;;;;;;4.73;4.40;;;12.70;99.90;;;;;;5012009;28;20175;-61
2022/05/22 03:11:42;;;;;;;5.20;3.90;;;12.70;99.90;;;;;;5012222;28;20501;-61
2022/05/22 03:14:08;;;;;;;4.70;4.33;;;12.60;99.90;;;;;;5012018;28;20584;-61
2022/05/22 03:16:34;;;;;;;4.40;4.10;;;12.60;99.90;;;;;;5012107;28;20432;-61
2022/05/22 03:19:00;;;;;;;4.23;3.90;;;12.70;99.90;;;;;;5011649;28;20426;-61
2022/05/22 03:21:29;;;;;;;5.53;4.60;;;12.70;99.90;;;;;;5012037;28;20167;-61
2022/05/22 03:23:55;;;;;;;6.30;3.93;;;12.70;99.90;;;;;;5012191;28;20442;-61
2022/05/22 03:26:21;;;;;;;4.50;4.10;;;12.70;99.90;;;;;;5011921;28;20813;-61
2022/05/22 03:28:47;;;;;;;4.50;4.17;;;12.60;99.90;;;;;;5011851;28;20452;-61
2022/05/22 03:31:12;;;;;;;4.50;4.13;;;12.50;99.90;;;;;;5011982;28;20844;-61
2022/05/22 03:33:38;;;;;;;4.63;4.33;;;12.40;99.90;;;;;;5011847;28;20191;-61
2022/05/22 03:36:05;;;;;;;4.40;4.00;;;12.40;99.90;;;;;;5012147;28;20175;-61
2022/05/22 03:38:31;;;;;;;4.87;4.47;;;12.40;99.90;;;;;;5011630;28;20175;-61
2022/05/22 03:40:56;;;;;;;3.93;3.73;;;12.40;99.90;;;;;;5011979;28;20499;-61
2022/05/22 03:43:22;;;;;;;5.67;4.17;;;12.40;99.90;;;;;;5010597;28;20445;-61
2022/05/22 03:45:47;;;;;;;5.00;4.50;;;12.40;99.90;;;;;;5011763;28;20240;-61
2022/05/22 03:48:13;;;;;;;4.37;3.97;;;12.50;99.90;;;;;;5011411;28;20167;-61
2022/05/22 03:50:39;;;;;;;4.80;4.13;;;12.60;99.90;;;;;;5011696;28;20253;-61
2022/05/22 03:53:05;;;;;;;4.43;3.80;;;12.70;99.90;;;;;;5011857;28;20544;-61
2022/05/22 03:55:31;;;;;;;3.90;3.60;;;12.70;99.90;;;;;;5011769;28;20410;-61
2022/05/22 03:57:56;;;;;;;4.57;4.17;;;12.80;99.90;;;;;;5011723;28;20417;-61
2022/05/22 04:00:24;;;;;;;4.90;4.50;;;12.70;99.90;;;;;;5011391;28;20179;-61
2022/05/22 04:02:51;;;;;;;4.67;4.27;;;12.70;99.90;;;;;;5046100;23;20246;-63
2022/05/22 04:05:17;;;;;;;7.30;4.50;;;12.80;99.90;;;;;;5011751;28;20434;-64
2022/05/22 04:07:45;;;;;;;4.60;3.77;;;12.90;99.90;;;;;;5010617;28;20453;-64
2022/05/22 04:10:12;;;;;;;7.53;6.17;;;13.00;99.90;;;;;;5011736;28;20428;-64
2022/05/22 04:12:39;;;;;;;6.63;5.90;;;13.00;99.90;;;;;;5011748;28;20426;-64
2022/05/22 04:15:07;;;;;;;6.27;5.00;;;12.70;99.90;;;;;;5011841;28;20989;-64
2022/05/22 04:17:33;;;;;;;4.83;3.90;;;13.10;99.90;;;;;;5010577;28;20436;-64
2022/05/22 04:19:58;;;;;;;7.07;5.93;;;13.20;99.90;;;;;;5011541;28;20818;-64
2022/05/22 04:22:24;;;;;;;6.03;5.50;;;13.20;99.90;;;;;;5011823;28;20234;-64
2022/05/22 04:27:41;;;;;;;4.53;3.70;;;13.10;99.90;;;;;;5011674;28;20201;-64
2022/05/22 04:30:09;;;;;;;7.90;5.10;;;13.20;99.90;;;;;;5012984;28;20501;-64
2022/05/22 04:32:35;;;;;;;7.63;5.33;;;13.20;99.90;;;;;;5015255;28;20418;-64
2022/05/22 04:35:01;;;;;;;6.30;5.67;;;13.30;99.90;;;;;;5013978;28;20417;-64
2022/05/22 04:37:26;;;;;;;5.67;5.17;;;13.30;99.90;;;;;;5015251;28;20265;-64
2022/05/22 04:39:52;;;;;;;7.03;4.73;;;13.30;99.90;;;;;;5014951;28;20253;-64
2022/05/22 04:42:17;;;;;;;5.03;4.63;;;13.40;99.90;;;;;;5015112;28;20638;-64
2022/05/22 04:44:43;;;;;;;6.73;5.60;;;13.50;99.90;;;;;;5015206;28;20199;-63
2022/05/22 04:47:08;;;;;;;5.70;4.30;;;13.60;99.90;;;;;;5015014;28;20203;-63
2022/05/22 04:49:34;;;;;;;4.70;4.30;;;13.70;99.90;;;;;;5014852;28;20710;-64
2022/05/22 04:52:00;;;;;;;4.87;4.33;;;13.80;99.90;;;;;;5015034;28;20167;-64
2022/05/22 04:54:25;;;;;;;4.57;4.20;;;13.90;99.90;;;;;;5014901;28;20202;-64
2022/05/22 04:56:53;;;;;;;4.60;4.20;;;14.10;99.90;;;;;;5014758;28;20512;-64
2022/05/22 04:59:19;;;;;;;5.60;5.10;;;14.30;99.90;;;;;;5014565;28;20174;-64
2022/05/22 05:01:45;;;;;;;6.87;4.17;;;14.60;99.90;;;;;;5014790;28;20790;-64
2022/05/22 05:04:13;;;;;;;4.07;3.77;;;14.80;99.90;;;;;;5014686;28;20234;-64
2022/05/22 05:06:38;;;;;;;6.67;3.97;;;15.00;99.90;;;;;;5014426;28;20437;-63
2022/05/22 05:09:04;;;;;;;5.70;4.40;;;15.20;99.90;;;;;;5014396;28;20418;-64
2022/05/22 05:11:30;;;;;;;4.70;4.30;;;15.30;99.90;;;;;;5014647;28;20690;-64
2022/05/22 05:13:55;;;;;;;4.10;3.83;;;15.40;99.90;;;;;;5014475;28;20194;-64
2022/05/22 05:16:22;;;;;;;5.53;4.37;;;15.50;99.90;;;;;;5014574;28;20637;-64
2022/05/22 05:18:47;;;;;;;4.60;4.20;;;15.40;99.90;;;;;;5014105;28;20178;-64
2022/05/22 05:21:15;;;;;;;7.83;4.00;;;15.30;99.90;;;;;;5014416;28;20421;-64
2022/05/22 05:23:41;;;;;;;4.27;3.83;;;15.30;99.90;;;;;;5014380;28;20269;-64
2022/05/22 05:26:07;;;;;;;4.90;4.40;;;15.20;99.90;;;;;;5014217;28;20908;-64
2022/05/22 05:28:33;;;;;;;5.07;4.63;;;15.20;99.90;;;;;;5014029;28;20175;-64
2022/05/22 05:30:59;;;;;;;8.30;5.03;;;15.40;99.90;;;;;;5014212;28;20787;-64
2022/05/22 05:33:25;;;;;;;4.30;4.00;;;15.60;99.90;;;;;;5014144;28;20183;-64
2022/05/22 05:35:51;;;;;;;4.53;4.17;;;15.80;99.90;;;;;;5014345;28;20501;-64
2022/05/22 05:38:16;;;;;;;4.40;4.10;;;15.90;99.90;;;;;;5013810;28;20424;-64
2022/05/22 05:40:42;;;;;;;4.47;4.17;;;16.20;99.90;;;;;;5013434;28;20183;-64
2022/05/22 05:43:08;;;;;;;4.00;3.70;;;16.40;99.90;;;;;;5013465;28;20183;-64
2022/05/22 05:45:34;;;;;;;4.90;3.60;;;16.80;99.90;;;;;;5012722;28;20171;-64
2022/05/22 05:48:00;;;;;;;4.33;3.33;;;16.90;99.90;;;;;;5013719;28;20207;-64
2022/05/22 05:50:26;;;;;;;4.07;3.67;;;16.90;99.90;;;;;;5013594;28;20418;-64
2022/05/22 05:52:57;;;;;;;4.43;3.33;;;16.90;99.90;;;;;;5013757;28;20452;-64
2022/05/22 05:55:24;;;;;;;3.97;3.37;;;17.00;99.90;;;;;;5013858;28;20162;-64
2022/05/22 05:57:50;;;;;;;3.47;3.17;;;17.10;99.90;;;;;;5013820;28;20454;-64
2022/05/22 06:00:18;;;;;;;3.67;3.30;;;17.00;99.90;;;;;;5013323;28;20425;-64
2022/05/22 06:02:43;;;;;;;4.07;3.77;;;17.10;99.90;;;;;;5013413;28;20472;-64
2022/05/22 06:05:11;;;;;;;3.90;3.60;;;17.10;99.90;;;;;;5013672;28;20425;-64
2022/05/22 06:07:37;;;;;;;5.10;3.60;;;17.50;99.90;;;;;;5013204;28;20202;-64
2022/05/22 06:10:04;;;;;;;4.67;4.10;;;17.60;99.90;;;;;;5013365;28;20792;-64
2022/05/22 06:12:31;;;;;;;4.63;4.00;;;17.80;99.90;;;;;;5012125;28;20424;-64
2022/05/22 06:14:56;;;;;;;3.73;3.43;;;17.70;99.90;;;;;;5013374;28;20420;-64
2022/05/22 06:17:34;;;;;;;3.37;3.07;;;17.60;99.90;;;;;;5013387;28;20665;-64
2022/05/22 06:20:00;;;;;;;3.87;3.57;;;17.80;99.90;;;;;;5013047;28;20182;-64
2022/05/22 06:22:28;;;;;;;2.93;2.73;;;18.30;99.90;;;;;;5013261;28;20409;-64
2022/05/22 06:24:55;;;;;;;3.97;3.27;;;18.80;99.90;;;;;;5013115;28;20658;-64
2022/05/22 06:27:20;;;;;;;3.30;3.10;;;19.10;99.90;;;;;;5013126;28;20559;-64
2022/05/22 06:29:46;;;;;;;3.20;3.00;;;19.00;99.90;;;;;;5013296;28;20452;-64
2022/05/22 06:32:15;;;;;;;4.60;3.60;;;18.90;99.90;;;;;;5013089;28;20171;-63
2022/05/22 06:34:41;;;;;;;3.40;3.10;;;18.70;99.90;;;;;;5013017;28;20197;-64
2022/05/22 06:37:08;;;;;;;3.33;3.00;;;18.80;99.90;;;;;;5013079;28;20864;-63
2022/05/22 06:39:51;;;;;;;5.63;3.77;;;18.90;99.90;;;;;;5012704;28;20445;-63
2022/05/22 06:42:20;;;;;;;3.20;3.00;;;19.10;99.90;;;;;;5013079;28;20432;-63
2022/05/22 06:45:00;;;;;;;3.40;3.10;;;19.40;99.90;;;;;;5012851;28;20491;-63
2022/05/22 06:47:28;;;;;;;3.07;2.70;;;19.60;99.90;;;;;;5012880;28;20464;-64
2022/05/22 06:49:54;;;;;;;3.17;2.97;;;19.70;99.90;;;;;;5012515;28;20452;-64
2022/05/22 06:52:20;;;;;;;3.63;3.07;;;20.00;99.90;;;;;;5012383;28;20413;-64
2022/05/22 06:54:45;;;;;;;3.27;3.00;;;19.90;99.90;;;;;;5012698;28;20452;-64
2022/05/22 06:57:15;;;;;;;3.30;3.00;;;19.90;99.90;;;;;;5012739;28;20167;-64
2022/05/22 06:59:41;;;;;;;2.80;2.60;;;19.90;99.90;;;;;;5012422;28;20178;-64
2022/05/22 07:02:06;;;;;;;3.10;2.80;;;20.00;99.90;;;;;;5012677;28;20414;-64
2022/05/22 07:04:32;;;;;;;2.97;2.77;;;20.30;99.90;;;;;;5012364;28;20232;-64
2022/05/22 07:06:58;;;;;;;3.10;2.43;;;20.50;99.90;;;;;;5012453;28;20210;-64
2022/05/22 07:09:23;;;;;;;2.90;2.47;;;20.90;99.90;;;;;;5012334;28;20182;-64
2022/05/22 07:11:50;;;;;;;2.90;2.60;;;21.10;99.90;;;;;;5012502;28;20167;-64
2022/05/22 07:14:16;;;;;;;2.77;2.57;;;21.40;99.90;;;;;;5012286;28;20199;-64
2022/05/22 07:16:42;;;;;;;2.53;2.33;;;21.80;99.90;;;;;;5012373;28;20479;-64
2022/05/22 07:19:11;;;;;;;2.70;2.50;;;22.20;99.20;;;;;;5012019;28;20175;-64
2022/05/22 07:21:36;;;;;;;3.07;2.77;;;22.60;98.80;;;;;;5012311;28;20472;-64
2022/05/22 07:24:02;;;;;;;3.17;2.97;;;22.90;97.70;;;;;;5012274;28;20516;-64
2022/05/22 07:26:29;;;;;;;3.27;2.97;;;23.10;96.90;;;;;;5012249;28;20807;-64
2022/05/22 07:28:58;;;;;;;3.37;2.90;;;23.30;96.70;;;;;;5011913;28;20217;-64
2022/05/22 07:31:26;;;;;;;3.47;3.10;;;23.40;95.70;;;;;;5012208;28;20422;-64
2022/05/22 07:33:52;;;;;;;4.10;2.70;;;23.50;95.80;;;;;;5012181;28;21032;-64
2022/05/22 07:36:19;;;;;;;5.53;2.57;;;23.80;94.60;;;;;;5012227;28;20409;-64
2022/05/22 07:38:45;;;;;;;2.63;2.43;;;24.10;93.90;;;;;;5011893;28;21069;-64
2022/05/22 07:41:12;;;;;;;3.70;2.33;;;24.20;92.80;;;;;;5012299;28;20429;-64
2022/05/22 07:43:38;;;;;;;2.60;2.30;;;24.40;92.80;;;;;;5010843;28;20952;-64
2022/05/22 07:46:05;;;;;;;4.70;3.10;;;24.60;92.30;;;;;;5011975;28;20489;-64
2022/05/22 07:48:30;;;;;;;2.67;2.47;;;24.70;91.40;;;;;;5011927;28;20422;-64
2022/05/22 07:50:58;;;;;;;3.17;2.83;;;24.70;90.70;;;;;;5012307;28;20468;-64
2022/05/22 07:53:25;;;;;;;3.53;2.30;;;24.70;90.70;;;;;;5012095;28;20191;-64
2022/05/22 07:55:50;;;;;;;2.47;2.37;;;24.70;90.80;;;;;;5011905;28;20942;-64
2022/05/22 07:58:17;;;;;;;2.63;2.43;;;24.50;90.80;;;;;;5011764;28;20414;-64
2022/05/22 08:00:43;;;;;;;3.60;2.73;;;24.60;90.20;;;;;;5011774;28;20174;-64
2022/05/22 08:03:10;;;;;;;2.67;2.40;;;24.90;89.20;;;;;;5011791;28;20817;-64
2022/05/22 08:05:36;;;;;;;2.57;2.13;;;25.10;88.00;;;;;;5014483;28;20182;-65
2022/05/22 08:08:01;;;;;;;3.53;1.93;;;25.00;86.60;;;;;;5015730;28;20466;-64
2022/05/22 08:10:27;;;;;;;2.77;2.57;;;25.00;87.00;;;;;;5015595;28;20167;-64
2022/05/22 08:12:52;;;;;;;3.00;2.37;;;24.70;87.30;;;;;;5015685;28;20326;-64
2022/05/22 08:15:22;;;;;;;3.87;3.57;;;24.30;87.30;;;;;;5015524;28;20618;-64
2022/05/22 08:17:47;;;;;;;2.20;2.00;;;24.20;87.90;;;;;;5015635;28;20178;-61
2022/05/22 08:20:17;;;;;;;2.60;2.50;;;24.40;88.40;;;;;;5015343;28;20413;-64
2022/05/22 08:22:46;;;;;;;2.60;2.23;;;24.50;87.20;;;;;;5015489;28;20171;-64
2022/05/22 08:25:16;;;;;;;2.47;2.27;;;24.60;86.60;;;;;;5015524;28;20428;-64
2022/05/22 08:27:42;;;;;;;3.13;2.07;;;24.60;85.80;;;;;;5015301;28;20480;-64
2022/05/22 08:30:10;;;;;;;5.23;2.63;;;24.90;84.60;;;;;;5015117;28;20426;-64
2022/05/22 08:32:40;;;;;;;4.17;2.67;;;25.00;83.50;;;;;;5015242;28;20420;-64
2022/05/22 08:35:08;;;;;;;2.53;2.33;;;25.30;82.10;;;;;;5015561;28;20414;-64
2022/05/22 08:37:34;;;;;;;3.77;2.20;;;25.40;82.80;;;;;;5015360;28;20420;-63
2022/05/22 08:40:00;;;;;;;3.73;2.20;;;25.80;81.40;;;;;;5015316;28;20417;-63
2022/05/22 08:42:39;;;;;;;2.20;2.10;;;26.30;78.90;;;;;;5015235;28;20456;-63
2022/05/22 08:45:11;;;;;;;2.77;2.37;;;26.40;77.20;;;;;;5015305;28;20424;-64
2022/05/22 08:47:56;;;;;;;3.27;2.10;;;26.20;77.00;;;;;;5015122;28;20828;-64
2022/05/22 08:50:23;;;;;;;1.80;1.70;;;26.40;76.30;;;;;;5014895;28;20445;-63
2022/05/22 08:52:55;;;;;;;2.60;2.40;;;26.90;76.70;;;;;;5014948;28;20409;-64
2022/05/22 09:01:45;;;;;;;2.57;2.37;;;27.00;72.40;;;;;;5015195;28;20428;-64
2022/05/22 09:04:30;;;;;;;2.77;2.00;;;26.80;71.70;;;;;;5014695;28;20523;-63
2022/05/22 09:07:19;;;;;;;1.90;1.77;;;27.10;71.40;;;;;;5014327;28;21027;-63
2022/05/22 09:09:48;;;;;;;2.50;1.77;;;27.20;71.40;;;;;;5014446;28;20410;-63
2022/05/22 09:12:25;;;;;;;2.13;1.93;;;27.40;70.70;;;;;;5014628;28;20417;-63
2022/05/22 09:15:05;;;;;;;3.60;3.30;;;27.20;70.00;;;;;;5014676;28;20460;-63
2022/05/22 09:17:36;;;;;;;1.83;1.73;;;27.00;69.70;;;;;;5014689;28;20464;-63
2022/05/22 09:20:18;;;;;;;1.90;1.80;;;27.20;70.30;;;;;;5014256;28;20761;-63
2022/05/22 09:23:18;;;;;;;2.80;2.03;;;27.10;69.30;;;;;;5014323;28;20418;-62
2022/05/22 09:26:06;;;;;;;2.43;2.13;;;27.30;69.00;;;;;;5014544;28;20432;-63
2022/05/22 09:29:03;;;;;;;3.17;2.73;;;27.60;68.10;;;;;;5014078;28;20450;-63
2022/05/22 09:31:41;;;;;;;2.63;2.27;;;28.10;66.80;;;;;;5014317;28;20425;-62
2022/05/22 09:34:24;;;;;;;2.53;2.33;;;27.90;66.80;;;;;;5014126;28;20433;-63
2022/05/22 09:37:11;;;;;;;3.57;2.70;;;28.10;65.30;;;;;;5014226;28;20437;-63
2022/05/22 09:39:52;;;;;;;2.30;2.10;;;28.10;65.00;;;;;;5013935;28;20404;-63
2022/05/22 09:42:32;;;;;;;3.30;1.67;;;28.50;63.10;;;;;;5014364;28;20421;-63
2022/05/22 09:45:16;;;;;;;2.17;2.03;;;28.80;61.60;;;;;;5014074;28;20413;-64
2022/05/22 09:47:53;;;;;;;3.00;2.00;;;29.20;60.80;;;;;;5013957;28;20540;-64
2022/05/22 09:50:28;;;;;;;10.67;6.93;;;29.80;59.20;;;;;;5014089;28;20500;-64
2022/05/22 09:53:10;;;;;;;1.90;1.77;;;30.50;57.70;;;;;;5013982;28;20437;-64
2022/05/22 09:55:44;;;;;;;5.10;2.23;;;30.90;56.40;;;;;;5013899;28;20922;-64
2022/05/22 09:58:19;;;;;;;3.47;2.77;;;31.00;54.20;;;;;;5013725;28;20471;-64
2022/05/22 10:00:44;;;;;;;3.50;3.00;;;31.30;54.10;;;;;;5013901;28;20414;-64
2022/05/22 10:03:26;;;;;;;3.73;2.27;;;31.40;53.40;;;;;;5014263;28;20476;-65
2022/05/22 10:06:26;;;;;;;2.50;2.10;;;31.70;53.10;;;;;;5013712;28;20170;-63
2022/05/22 10:08:57;;;;;;;2.53;2.00;;;31.70;51.90;;;;;;5013492;28;20760;-62
2022/05/22 10:11:36;;;;;;;3.40;2.23;;;31.20;52.90;;;;;;5013824;28;20783;-62
2022/05/22 10:14:05;;;;;;;2.13;2.03;;;31.10;53.30;;;;;;5013671;28;20434;-63
2022/05/22 10:16:45;;;;;;;2.30;2.10;;;31.10;53.10;;;;;;5013478;28;20410;-63
2022/05/22 10:19:28;;;;;;;4.00;2.53;;;31.70;52.90;;;;;;5013225;28;20918;-62
2022/05/22 10:22:28;;;;;;;2.53;2.10;;;32.30;51.80;;;;;;5013469;28;20414;-63
2022/05/22 10:25:24;;;;;;;2.10;2.00;;;32.50;50.70;;;;;;5013165;28;20422;-63
2022/05/22 10:28:08;;;;;;;2.30;2.10;;;32.80;49.80;;;;;;5012395;28;20462;-64
2022/05/22 10:30:51;;;;;;;2.47;2.27;;;33.90;48.00;;;;;;5012956;28;20402;-64
2022/05/22 10:33:29;;;;;;;2.97;2.67;;;35.60;45.40;;;;;;5012852;28;20440;-63
2022/05/22 10:36:02;;;;;;;2.80;2.60;;;36.10;43.80;;;;;;5013157;28;20826;-63
2022/05/22 10:38:39;;;;;;;2.37;2.27;;;35.50;44.20;;;;;;5012633;28;20454;-63
2022/05/22 10:44:14;;;;;;;2.90;2.70;;;35.70;42.80;;;;;;5013128;28;20504;-62
2022/05/22 10:46:49;;;;;;;2.57;2.27;;;36.50;41.90;;;;;;5012771;28;20453;-63
2022/05/22 10:49:16;;;;;;;7.10;2.40;;;36.40;40.60;;;;;;5012583;28;20421;-63
2022/05/22 10:51:58;;;;;;;2.97;2.00;;;36.80;39.90;;;;;;5012747;28;20418;-64
2022/05/22 10:54:29;;;;;;;4.30;2.40;;;37.50;39.20;;;;;;5012925;28;20528;-64
2022/05/22 10:56:55;;;;;;;2.53;2.43;;;38.60;38.00;;;;;;5012697;28;20424;-65
2022/05/22 10:59:22;;;;;;;2.50;2.40;;;39.40;37.10;;;;;;5012397;28;20924;-65
2022/05/22 11:02:00;;;;;;;4.60;2.70;;;40.10;35.30;;;;;;5012555;28;20425;-63
2022/05/22 11:04:37;;;;;;;1.80;1.70;;;39.30;34.90;;;;;;5012417;28;20515;-63
2022/05/22 11:07:04;;;;;;;3.93;2.30;;;37.70;36.10;;;;;;5012473;28;20469;-63
2022/05/22 11:09:48;;;;;;;2.90;2.70;;;38.60;35.50;;;;;;5012235;28;20425;-64
2022/05/22 11:12:20;;;;;;;2.10;1.90;;;38.80;35.50;;;;;;5012947;28;20848;-63
2022/05/22 11:14:46;;;;;;;3.67;2.03;;;39.10;35.20;;;;;;5012416;28;20438;-63
2022/05/22 11:17:16;;;;;;;2.70;2.10;;;38.10;35.00;;;;;;5012358;28;20421;-63
2022/05/22 11:19:44;;;;;;;2.57;2.37;;;38.10;35.80;;;;;;5011977;28;20175;-63
2022/05/22 11:22:31;;;;;;;2.20;2.10;;;38.20;35.40;;;;;;5012059;28;20429;-63
2022/05/22 11:25:03;;;;;;;3.60;2.37;;;37.20;36.20;;;;;;5012192;28;20430;-63
2022/05/22 11:28:01;;;;;;;2.10;2.00;;;36.50;36.50;;;;;;5011756;28;20485;-65
2022/05/22 11:30:42;;;;;;;2.60;2.40;;;37.40;35.90;;;;;;5012029;28;20421;-63
2022/05/22 11:33:13;;;;;;;2.33;2.13;;;37.40;35.30;;;;;;5011903;28;20441;-64
2022/05/22 11:35:44;;;;;;;1.90;1.80;;;39.40;34.40;;;;;;5012164;28;20409;-64
2022/05/22 11:38:36;;;;;;;2.43;2.20;;;40.20;33.80;;;;;;5011873;28;20433;-63
2022/05/22 11:41:22;;;;;;;3.17;2.50;;;40.20;33.40;;;;;;5013447;28;20923;-63
2022/05/22 11:44:25;;;;;;;4.83;4.43;;;40.00;32.90;;;;;;5015800;28;20434;-63
2022/05/22 11:47:09;;;;;;;3.07;2.87;;;39.40;33.30;;;;;;5016186;28;21052;-64
2022/05/22 11:49:43;;;;;;;3.10;2.90;;;39.70;33.90;;;;;;5015705;28;20563;-63
2022/05/22 11:52:53;;;;;;;3.80;2.77;;;38.40;33.30;;;;;;5016319;28;20552;-64
2022/05/22 11:55:41;;;;;;;2.80;2.60;;;39.20;33.80;;;;;;5015935;28;20449;-64
2022/05/22 11:58:15;;;;;;;3.33;3.13;;;40.40;33.70;;;;;;5015992;28;20767;-63
2022/05/22 12:00:51;;;;;;;3.80;2.63;;;39.80;32.90;;;;;;5015911;28;20413;-63
2022/05/22 12:03:46;;;;;;;2.70;2.60;;;38.70;34.20;;;;;;5015934;28;20507;-63
2022/05/22 12:06:43;;;;;;;2.33;1.90;;;39.40;33.50;;;;;;5015744;28;20499;-63
2022/05/22 12:09:31;;;;;;;3.90;2.47;;;39.40;32.90;;;;;;4989787;28;20428;-62
2022/05/22 12:12:08;;;;;;;2.87;2.77;;;40.50;32.60;;;;;;5016013;28;20448;-64
2022/05/22 12:15:07;;;;;;;2.77;2.50;;;41.80;31.60;;;;;;5015650;28;20441;-64
2022/05/22 12:17:38;;;;;;;2.47;2.27;;;41.80;31.50;;;;;;5015645;28;20452;-63
2022/05/22 12:20:22;;;;;;;3.53;2.97;;;41.90;31.10;;;;;;5015371;28;20575;-63
2022/05/22 12:23:17;;;;;;;3.10;2.80;;;42.40;30.60;;;;;;5015395;28;20433;-63
2022/05/22 12:26:09;;;;;;;3.00;2.80;;;42.30;30.20;;;;;;5015492;28;20477;-63
2022/05/22 12:28:46;;;;;;;2.43;2.33;;;41.50;29.70;;;;;;5012159;28;20508;-63
2022/05/22 12:31:19;;;;;;;2.87;2.77;;;40.20;31.50;;;;;;5015429;28;20479;-63
2022/05/22 12:33:46;;;;;;;3.10;2.90;;;38.80;31.90;;;;;;5015250;28;20446;-64
2022/05/22 12:36:12;;;;;;;4.63;2.80;;;37.60;33.30;;;;;;5015147;28;20500;-64
2022/05/22 12:38:52;;;;;;;2.37;2.27;;;38.50;32.50;;;;;;5014882;28;20413;-63
2022/05/22 12:41:30;;;;;;;2.93;2.73;;;39.60;32.40;;;;;;5015223;28;20915;-64
2022/05/22 12:43:58;;;;;;;2.97;2.77;;;40.00;31.70;;;;;;5015040;28;20794;-64
2022/05/22 12:46:25;;;;;;;3.27;2.97;;;39.40;31.40;;;;;;5015006;28;20817;-64
2022/05/22 12:49:10;;;;;;;3.50;2.90;;;39.30;31.50;;;;;;5014765;28;20413;-64
2022/05/22 12:51:39;;;;;;;3.30;2.67;;;39.40;31.90;;;;;;5014361;28;20450;-63
2022/05/22 12:54:20;;;;;;;2.53;2.43;;;39.10;31.30;;;;;;5014847;28;20445;-64
2022/05/22 12:56:46;;;;;;;2.60;2.43;;;39.50;30.80;;;;;;5014963;28;20421;-63
2022/05/22 12:59:28;;;;;;;2.93;2.60;;;39.80;30.60;;;;;;5014477;28;20839;-63
2022/05/22 13:01:57;;;;;;;3.03;2.57;;;39.80;30.60;;;;;;5014835;28;20171;-63
2022/05/22 13:04:24;;;;;;;3.93;2.60;;;39.20;31.30;;;;;;5014469;28;20548;-63
2022/05/22 13:07:09;;;;;;;2.13;2.03;;;38.50;32.10;;;;;;5014688;28;20476;-63
2022/05/22 13:09:47;;;;;;;2.57;2.37;;;38.40;31.70;;;;;;5014495;28;20505;-62
2022/05/22 13:12:13;;;;;;;3.10;2.80;;;38.30;31.90;;;;;;5014567;28;20445;-63
2022/05/22 13:14:47;;;;;;;3.00;2.80;;;38.80;31.20;;;;;;5014592;28;20492;-63
2022/05/22 13:17:16;;;;;;;2.77;2.57;;;39.80;30.20;;;;;;5014681;28;20178;-63
2022/05/22 13:19:55;;;;;;;2.50;2.30;;;39.40;30.30;;;;;;5014161;28;20476;-63
2022/05/22 13:22:30;;;;;;;3.90;3.70;;;38.90;29.80;;;;;;5014337;28;20454;-63